Aviation Digital Data Service (ADDS)

Output produced by METARs form (0232 UTC 16 January 2019)
found at http://www.aviationweather.gov/metar/data/
 
HRYR 160200Z 00000KT 3000 BR FEW015 SCT025 16/16 Q1021 NOSIG
TAF COR HRYR 152300Z 1601/1706 00000KT 0500 FG SCT015 SCT025 
     FM160700 16008KT 4000 BR SCT025 SCT100 
     TEMPO 1610/1615 12010G20KT 9999 TSRA FEW023CB BKN025 
     FM162200 33004KT SCT025 SCT100 
     BECMG 1702/1705 VRB03KT BKN025